Current Conditions
Scattered
Clouds



Pressure
29.7 (inHG) - 1005.92 (mb)
Visibility

6.2 (miles) - 10.0 (km)
Temperature
88  °F
Temperature
73  °F
Dewpoint
62  %
 Humidity
Wind Speed
8  mph
7  kts
13  km/h
3.6  m/s
Wind Direction
N
45°
E
90°
135°
S
180°
225°
W
270°
315°
 140°

South East
Airport Data
WSSL
Seletar Airport
Metar :WSSL 160800Z 14007KT 9999 VCSH TS SCT015TCU FEW017CB SCT300 31/23 Q1006
Sun 16th May 12:00 pm
Raw Metar Info
Raw METAR is the most common format in the world for the transmission of observational weather data. It is highly standardized through the International Civil Aviation Organization (ICAO), which allows it to be understood throughout most of the world.
API Info
Data Provided by
https://www.checkwx.com/weather/KPVD

Aviation Weather providing METAR, TAF, AIRMET, SIGMET and OUTLOOK Weather Reports
© Info
CSS/SVG/PHP scripts were developed by weather34.com for use in the weather34 template © 2015-2021

Guide Info provided by Metar-Wikipedia